Terminal Aerodrome Forecast
Issued by NWS

Home | Current Version | Previous Version | Text Only | Print | Product List | Glossary On
Versions: 1 2 3 4 5 6 7 8 9 10 11 12 13 14 15 16 17 18 19 20 21
694
FTUS43 KGRR 251140
TAFBTL
TAF
KBTL 251140Z 2512/2612 12006KT P6SM BKN080
     FM251500 14008KT P6SM SCT040
     FM260300 17009KT P6SM -SHRA OVC035
     FM260800 24010KT P6SM -SHRA SCT007 OVC015=

USA.gov is the U.S. government's official web portal to all federal, state and local government web resources and services.